createdAt,value
2018-12-30T00:05:13.170Z,101145.13
2018-12-30T00:10:31.627Z,101142.00
2018-12-30T00:15:50.168Z,101154.38
2018-12-30T00:21:09.093Z,101159.44
2018-12-30T00:26:29.214Z,101162.73
2018-12-30T00:31:49.338Z,101173.25
2018-12-30T00:37:08.240Z,101176.98
2018-12-30T00:42:26.713Z,101200.05
2018-12-30T00:47:47.221Z,101214.62
2018-12-30T00:53:05.680Z,101231.98
2018-12-30T00:58:24.139Z,101228.20
2018-12-30T01:03:44.319Z,101233.61
2018-12-30T01:09:02.929Z,101239.05
2018-12-30T01:14:21.390Z,101246.97
2018-12-30T01:19:39.960Z,101252.92
2018-12-30T01:24:58.445Z,101261.57
2018-12-30T01:30:17.084Z,101265.83
2018-12-30T01:35:35.999Z,101270.27
2018-12-30T01:46:21.926Z,101286.70
2018-12-30T01:51:40.397Z,101290.72
2018-12-30T01:56:59.006Z,101302.55
2018-12-30T02:02:17.472Z,101295.81
2018-12-30T02:13:06.469Z,101307.53
2018-12-30T02:18:24.951Z,101313.70
2018-12-30T02:23:43.411Z,101339.14
2018-12-30T02:29:01.946Z,101347.26
2018-12-30T02:34:22.145Z,101360.27
2018-12-30T02:39:40.605Z,101361.66
2018-12-30T02:44:59.061Z,101373.60
2018-12-30T02:55:48.051Z,101366.16
2018-12-30T03:01:06.525Z,101353.80
2018-12-30T03:06:24.991Z,101367.23
2018-12-30T03:11:43.534Z,101368.66
2018-12-30T03:17:02.138Z,101370.88
2018-12-30T03:22:20.605Z,101384.08
2018-12-30T03:27:39.136Z,101381.30
2018-12-30T03:32:57.638Z,101381.66
2018-12-30T03:38:16.232Z,101371.88
2018-12-30T03:43:34.770Z,101385.75
2018-12-30T03:49:33.139Z,101389.23
2018-12-30T03:54:51.602Z,101407.22
2018-12-30T04:00:10.212Z,101408.55
2018-12-30T04:05:28.679Z,101421.58
2018-12-30T04:10:47.159Z,101415.91
2018-12-30T04:16:05.636Z,101423.96
2018-12-30T04:21:24.171Z,101421.61
2018-12-30T04:26:42.702Z,101407.83
2018-12-30T04:32:01.290Z,101407.22
2018-12-30T04:37:19.806Z,101431.13
2018-12-30T04:42:38.283Z,101435.64
2018-12-30T04:48:16.084Z,101449.80
2018-12-30T04:53:34.550Z,101450.98
2018-12-30T04:58:53.013Z,101463.41
2018-12-30T05:04:11.549Z,101469.89
2018-12-30T05:09:30.033Z,101405.29
2018-12-30T05:14:48.498Z,101483.28
2018-12-30T05:20:07.230Z,101504.47
2018-12-30T05:25:25.766Z,101410.28
2018-12-30T05:30:44.231Z,101513.72
2018-12-30T05:36:02.800Z,101481.64
2018-12-30T05:41:21.314Z,101464.13
2018-12-30T05:46:39.861Z,101473.42
2018-12-30T05:51:58.333Z,101446.77
2018-12-30T05:57:16.890Z,101468.14
2018-12-30T06:02:35.363Z,101485.25
2018-12-30T06:07:53.868Z,101480.73
2018-12-30T06:13:12.754Z,101484.61
2018-12-30T06:18:31.301Z,101508.03
2018-12-30T06:29:20.219Z,101507.96
2018-12-30T06:34:38.711Z,101517.52
2018-12-30T06:39:57.433Z,101519.75
2018-12-30T06:45:15.970Z,101525.80
2018-12-30T06:50:34.430Z,101519.13
2018-12-30T06:55:52.907Z,101536.23
2018-12-30T07:01:11.592Z,101535.72
2018-12-30T07:06:30.058Z,101548.84
2018-12-30T07:11:48.619Z,101564.63
2018-12-30T07:17:07.153Z,101576.86
2018-12-30T07:22:25.618Z,101574.34
2018-12-30T07:27:44.150Z,101571.83
2018-12-30T07:33:02.608Z,101572.38
2018-12-30T07:38:21.308Z,101570.14
2018-12-30T07:43:39.787Z,101587.94
2018-12-30T07:48:58.321Z,101572.11
2018-12-30T07:54:16.791Z,101580.09
2018-12-30T07:59:56.037Z,101561.70
2018-12-30T08:05:14.992Z,101573.78
2018-12-30T08:10:33.456Z,101586.48
2018-12-30T08:15:52.240Z,101597.73
2018-12-30T08:21:10.785Z,101604.20
2018-12-30T08:26:29.243Z,101616.64
2018-12-30T08:31:47.729Z,101613.77
2018-12-30T08:42:36.683Z,101609.24
2018-12-30T08:47:55.514Z,101606.48
2018-12-30T08:53:14.054Z,101625.16
2018-12-30T08:58:32.522Z,101607.13
2018-12-30T09:03:51.000Z,101616.45
2018-12-30T09:09:09.539Z,101613.74
2018-12-30T09:14:28.081Z,101605.78
2018-12-30T09:19:46.838Z,101609.09
2018-12-30T09:25:05.758Z,101596.68
2018-12-30T09:30:24.306Z,101605.97
2018-12-30T09:35:42.774Z,101616.84
2018-12-30T09:41:01.242Z,101614.52
2018-12-30T09:51:50.229Z,101612.51
2018-12-30T09:57:08.980Z,101636.64
2018-12-30T10:13:28.429Z,101672.22
2018-12-30T10:18:46.898Z,101678.27
2018-12-30T10:24:05.439Z,101682.23
2018-12-30T10:29:23.910Z,101664.15
2018-12-30T10:40:12.819Z,101678.75
2018-12-30T10:45:31.300Z,101681.27
2018-12-30T10:50:49.770Z,101663.31
2018-12-30T11:01:40.755Z,101648.30
2018-12-30T11:06:59.478Z,101644.05
2018-12-30T11:18:07.788Z,101639.75
2018-12-30T11:23:26.260Z,101636.27
2018-12-30T11:28:45.080Z,101630.94
2018-12-30T11:39:34.197Z,101625.61
2018-12-30T11:44:52.658Z,101615.95
2018-12-30T11:50:11.525Z,101611.95
2018-12-30T11:55:29.983Z,101614.08
2018-12-30T12:00:48.587Z,101625.98
2018-12-30T12:06:07.089Z,101626.52
2018-12-30T12:11:25.620Z,101614.08
2018-12-30T12:17:03.778Z,101630.30
2018-12-30T12:27:54.923Z,101595.52
2018-12-30T12:33:13.495Z,101581.60
2018-12-30T12:38:31.958Z,101591.92
2018-12-30T12:43:50.498Z,101595.03
2018-12-30T12:49:08.999Z,101601.16
2018-12-30T12:54:32.119Z,101595.52
2018-12-30T13:05:20.269Z,101592.27
2018-12-30T13:10:38.804Z,101598.08
2018-12-30T13:16:03.294Z,101592.72
2018-12-30T13:21:17.526Z,101584.12
2018-12-30T13:26:35.999Z,101592.33
2018-12-30T13:31:54.460Z,101593.94
2018-12-30T13:37:13.006Z,101603.94
2018-12-30T13:42:31.609Z,101609.90
2018-12-30T13:47:50.071Z,101608.31
2018-12-30T13:53:08.533Z,101619.11
2018-12-30T13:58:27.071Z,101625.56
2018-12-30T14:03:45.534Z,101630.16
2018-12-30T14:09:17.798Z,101619.87
2018-12-30T14:20:48.886Z,101616.72
2018-12-30T14:26:07.356Z,101631.27
2018-12-30T14:31:25.901Z,101632.89
2018-12-30T14:36:44.370Z,101619.89
2018-12-30T14:42:02.909Z,101611.40
2018-12-30T14:47:21.515Z,101599.11
2018-12-30T14:52:40.340Z,101600.36
2018-12-30T14:57:58.805Z,101604.66
2018-12-30T15:03:17.266Z,101594.30
2018-12-30T15:08:35.737Z,101596.86
2018-12-30T15:13:54.412Z,101614.02
2018-12-30T15:19:12.882Z,101615.70
2018-12-30T15:24:31.345Z,101614.86
2018-12-30T15:29:49.806Z,101613.27
2018-12-30T15:35:08.408Z,101584.98
2018-12-30T15:40:26.874Z,101582.22
2018-12-30T15:45:45.482Z,101577.22
2018-12-30T15:51:04.096Z,101583.94
2018-12-30T15:56:22.637Z,101583.74
2018-12-30T16:01:41.251Z,101575.19
2018-12-30T16:12:32.162Z,101561.07
2018-12-30T16:18:10.043Z,101560.99
2018-12-30T16:23:28.510Z,101560.99
2018-12-30T16:28:47.008Z,101544.88
2018-12-30T16:34:05.557Z,101545.11
2018-12-30T16:39:24.016Z,101550.87
2018-12-30T16:44:42.557Z,101553.42
2018-12-30T16:50:01.025Z,101550.34
2018-12-30T16:55:19.568Z,101556.47
2018-12-30T17:00:38.027Z,101556.11
2018-12-30T17:05:56.567Z,101552.98
2018-12-30T17:11:15.036Z,101559.37
2018-12-30T17:22:06.092Z,101553.19
2018-12-30T17:27:24.723Z,101547.30
2018-12-30T17:32:43.262Z,101547.30
2018-12-30T17:38:01.807Z,101545.15
2018-12-30T17:43:20.277Z,101530.20
2018-12-30T17:54:15.129Z,101512.45
2018-12-30T17:59:29.533Z,101515.49
2018-12-30T18:04:47.998Z,101514.94
2018-12-30T18:10:46.450Z,101523.84
2018-12-30T18:16:05.072Z,101526.20
2018-12-30T18:21:23.614Z,101524.73
2018-12-30T18:26:42.149Z,101528.77
2018-12-30T18:32:00.610Z,101524.05
2018-12-30T18:37:19.153Z,101522.05
2018-12-30T18:42:37.690Z,101534.40
2018-12-30T18:47:56.234Z,101532.48
2018-12-30T18:53:14.773Z,101528.63
2018-12-30T18:58:33.247Z,101523.16
2018-12-30T19:03:51.797Z,101542.67
2018-12-30T19:09:10.335Z,101530.87
2018-12-30T19:14:28.793Z,101531.23
2018-12-30T19:19:47.400Z,101519.27
2018-12-30T19:25:45.825Z,101516.34
2018-12-30T19:31:04.373Z,101517.05
2018-12-30T19:36:23.123Z,101517.45
2018-12-30T19:41:41.661Z,101524.70
2018-12-30T19:47:00.219Z,101518.94
2018-12-30T19:52:18.758Z,101518.98
2018-12-30T19:57:37.224Z,101532.95
2018-12-30T20:02:55.682Z,101540.86
2018-12-30T20:08:14.164Z,101548.25
2018-12-30T20:13:32.817Z,101537.69
2018-12-30T20:18:51.288Z,101538.28
2018-12-30T20:24:09.902Z,101535.52
2018-12-30T20:29:28.831Z,101536.75
2018-12-30T20:40:17.989Z,101524.11
2018-12-30T20:45:36.607Z,101518.06
2018-12-30T20:50:55.343Z,101522.24
2018-12-30T21:01:48.664Z,101528.14
2018-12-30T21:07:07.422Z,101509.53
2018-12-30T21:12:25.945Z,101504.45
2018-12-30T21:17:44.722Z,101504.86
2018-12-30T21:23:03.189Z,101497.58
2018-12-30T21:28:21.670Z,101498.91
2018-12-30T21:33:40.135Z,101494.30
2018-12-30T21:38:58.609Z,101495.49
2018-12-30T21:44:17.094Z,101488.44
2018-12-30T21:49:35.590Z,101488.31
2018-12-30T22:00:43.929Z,101490.86
2018-12-30T22:06:21.847Z,101484.87
2018-12-30T22:11:40.320Z,101493.02
2018-12-30T22:16:58.829Z,101496.44
2018-12-30T22:22:17.374Z,101501.08
2018-12-30T22:27:35.837Z,101492.18
2018-12-30T22:32:54.612Z,101502.78
2018-12-30T22:38:13.384Z,101515.86
2018-12-30T22:43:31.902Z,101522.34
2018-12-30T22:49:09.714Z,101510.58
2018-12-30T22:54:28.183Z,101522.11
2018-12-30T22:59:47.940Z,101523.85
2018-12-30T23:05:07.152Z,101522.23
2018-12-30T23:10:25.718Z,101522.14
2018-12-30T23:15:44.190Z,101529.20
2018-12-30T23:21:02.668Z,101518.18
2018-12-30T23:26:21.263Z,101519.50
2018-12-30T23:31:39.718Z,101514.28
2018-12-30T23:36:58.255Z,101508.63
2018-12-30T23:42:16.804Z,101504.31
2018-12-30T23:47:35.348Z,101506.12
2018-12-30T23:52:53.888Z,101517.23
2018-12-30T23:58:12.364Z,101523.17
